Time;durP1;ratioP1;P1;durP2;ratioP2;P2;SDS_P1;SDS_P2;PMS_P1;PMS_P2;Temp;Humidity;BMP_temperature;BMP_pressure;BME280_temperature;BME280_humidity;BME280_pressure;Samples;Min_cycle;Max_cycle;Signal;HPM_P1;HPM_P2
2023/04/19 05:52:10;;;;;;;7.47;4.65;;;;;;;;;;10588983;27;20397;-83
2023/04/19 05:57:11;;;;;;;6.35;3.63;;;;;;;;;;10568375;28;20030;-83
2023/04/19 06:02:12;;;;;;;5.00;3.60;;;;;;;;;;10591275;22;20044;-82
2023/04/19 06:07:13;;;;;;;4.68;3.10;;;;;;;;;;10487132;28;20029;-82
2023/04/19 06:13:00;;;;;;;;;;;;;;;;;;10507448;28;20028;-80
2023/04/19 06:17:42;;;;;;;3.88;2.83;;;;;;;;;;10539534;28;20383;-82
2023/04/19 06:22:43;;;;;;;;;;;;;;;;;;10529492;28;20200;-81
2023/04/19 06:27:44;;;;;;;5.38;3.78;;;;;;;;;;10527045;28;19904;-81
2023/04/19 06:32:45;;;;;;;;;;;;;;;;;;10542052;28;20033;-81
2023/04/19 06:37:46;;;;;;;4.95;3.70;;;;;;;;;;10524096;28;19908;-82
2023/04/19 06:42:47;;;;;;;;;;;;;;;;;;10526755;28;20032;-82
2023/04/19 06:47:48;;;;;;;4.65;3.10;;;;;;;;;;10527732;28;19904;-85
2023/04/19 06:52:49;;;;;;;;;;;;;;;;;;10528685;28;20031;-83
2023/04/19 06:57:50;;;;;;;5.30;3.70;;;;;;;;;;10530380;28;19999;-83
2023/04/19 07:02:51;;;;;;;;;;;;;;;;;;10506641;28;20064;-84
2023/04/19 07:07:52;;;;;;;4.70;2.90;;;;;;;;;;10504561;28;19975;-84
2023/04/19 07:12:53;;;;;;;;;;;;;;;;;;10505943;28;20028;-80
2023/04/19 07:17:54;;;;;;;5.53;3.45;;;;;;;;;;10519811;28;19939;-80
2023/04/19 07:22:55;;;;;;;;;;;;;;;;;;10498808;28;20035;-81
2023/04/19 07:27:56;;;;;;;4.38;3.28;;;;;;;;;;10513018;28;20247;-81
2023/04/19 07:32:57;;;;;;;5.03;3.20;;;;;;;;;;10496130;28;20083;-81
2023/04/19 07:37:58;;;;;;;6.63;3.15;;;;;;;;;;10491880;28;20127;-81
2023/04/19 07:42:59;;;;;;;5.88;2.85;;;;;;;;;;10497505;28;20145;-81
2023/04/19 07:48:00;;;;;;;6.18;3.22;;;;;;;;;;10494973;28;20059;-80
2023/04/19 07:53:01;;;;;;;5.22;3.28;;;;;;;;;;10495804;28;20064;-80
2023/04/19 07:58:02;;;;;;;;;;;;;;;;;;10493712;28;20024;-82
2023/04/19 08:03:03;;;;;;;4.53;3.08;;;;;;;;;;10515364;28;20277;-81
2023/04/19 08:08:05;;;;;;;4.00;3.22;;;;;;;;;;10510814;28;20130;-79
2023/04/19 08:13:06;;;;;;;5.45;3.22;;;;;;;;;;10518374;28;20021;-82
2023/04/19 08:18:07;;;;;;;;;;;;;;;;;;10509120;28;20033;-81
2023/04/19 08:23:08;;;;;;;5.10;3.13;;;;;;;;;;10497697;28;19904;-80
2023/04/19 08:28:10;;;;;;;6.28;3.10;;;;;;;;;;10525106;28;20024;-82
2023/04/19 08:33:11;;;;;;;5.85;4.63;;;;;;;;;;10499437;28;20451;-80
2023/04/19 08:38:12;;;;;;;;;;;;;;;;;;10497567;28;20419;-80
2023/04/19 08:43:13;;;;;;;13.82;12.30;;;;;;;;;;10497174;28;19916;-82
2023/04/19 08:48:15;;;;;;;5.43;2.70;;;;;;;;;;10503066;28;20028;-82
2023/04/19 08:53:29;;;;;;;3.97;2.53;;;;;;;;;;10498173;28;20448;-82
2023/04/19 08:58:32;;;;;;;7.05;4.82;;;;;;;;;;10514498;28;20031;-82
2023/04/19 09:03:33;;;;;;;4.00;2.50;;;;;;;;;;10503414;28;20399;-83
2023/04/19 09:08:34;;;;;;;3.45;2.28;;;;;;;;;;10522202;28;20032;-83
2023/04/19 09:13:39;;;;;;;;;;;;;;;;;;10502158;28;20021;-84
2023/04/19 09:18:58;;;;;;;4.80;2.92;;;;;;;;;;10500281;28;19975;-83
2023/04/19 09:23:59;;;;;;;5.00;2.80;;;;;;;;;;10498075;28;20035;-82
2023/04/19 09:29:01;;;;;;;3.55;2.17;;;;;;;;;;10497209;28;20024;-83
2023/04/19 09:34:19;;;;;;;7.40;3.80;;;;;;;;;;10516090;28;20386;-83
2023/04/19 09:39:35;;;;;;;3.97;2.95;;;;;;;;;;10502227;28;20044;-85
2023/04/19 09:44:36;;;;;;;4.07;2.92;;;;;;;;;;10514211;28;20016;-83
2023/04/19 09:49:37;;;;;;;3.35;2.80;;;;;;;;;;10504115;28;20025;-84
2023/04/19 09:54:38;;;;;;;5.80;2.35;;;;;;;;;;10500850;28;20020;-85
2023/04/19 09:59:39;;;;;;;5.35;2.63;;;;;;;;;;10501382;28;20027;-83
2023/04/19 10:04:42;;;;;;;4.47;1.90;;;;;;;;;;10502817;28;20068;-84
2023/04/19 10:09:43;;;;;;;3.97;2.80;;;;;;;;;;10498462;28;20553;-81
2023/04/19 10:14:45;;;;;;;3.72;2.78;;;;;;;;;;10497392;28;20566;-81
2023/04/19 10:19:46;;;;;;;3.95;2.72;;;;;;;;;;10516013;28;20062;-81
2023/04/19 10:25:07;;;;;;;4.85;2.58;;;;;;;;;;10515706;28;20020;-82
2023/04/19 10:30:16;;;;;;;9.10;8.20;;;;;;;;;;10497821;28;20120;-80
2023/04/19 10:35:17;;;;;;;8.32;6.07;;;;;;;;;;10499515;28;20087;-81
2023/04/19 10:40:38;;;;;;;5.13;3.00;;;;;;;;;;10522248;28;20123;-81
2023/04/19 10:45:39;;;;;;;4.97;2.72;;;;;;;;;;10502785;28;20055;-82
2023/04/19 10:51:00;;;;;;;5.03;2.60;;;;;;;;;;10505445;28;20036;-81
2023/04/19 10:56:01;;;;;;;3.72;2.72;;;;;;;;;;10510629;28;20012;-83
2023/04/19 11:01:20;;;;;;;4.47;2.38;;;;;;;;;;10507261;28;20063;-83
2023/04/19 11:06:25;;;;;;;4.88;3.13;;;;;;;;;;10501402;28;20028;-81
2023/04/19 11:11:27;;;;;;;3.10;2.50;;;;;;;;;;10520025;28;20055;-81
2023/04/19 11:16:28;;;;;;;5.50;3.13;;;;;;;;;;10500203;28;20020;-83
2023/04/19 11:21:29;;;;;;;6.03;3.15;;;;;;;;;;10520892;28;20029;-82
2023/04/19 11:26:30;;;;;;;6.30;3.03;;;;;;;;;;10502906;28;20036;-80
2023/04/19 11:31:34;;;;;;;4.60;2.70;;;;;;;;;;10502126;28;20039;-80
2023/04/19 11:36:46;;;;;;;5.15;3.20;;;;;;;;;;10502169;28;20031;-81
2023/04/19 11:41:47;;;;;;;4.50;3.22;;;;;;;;;;10501864;28;20029;-81
2023/04/19 11:46:58;;;;;;;5.07;3.00;;;;;;;;;;10502986;28;20153;-81
2023/04/19 11:52:00;;;;;;;3.95;2.92;;;;;;;;;;10503993;28;20123;-81
2023/04/19 11:57:02;;;;;;;4.68;2.83;;;;;;;;;;10507289;28;20017;-80
2023/04/19 12:02:07;;;;;;;4.88;2.63;;;;;;;;;;10542555;22;20036;-81
2023/04/19 12:07:10;;;;;;;5.20;2.97;;;;;;;;;;10557336;28;20107;-82
2023/04/19 12:12:11;;;;;;;4.68;3.38;;;;;;;;;;10558872;28;20099;-80
2023/04/19 12:17:14;;;;;;;6.38;2.80;;;;;;;;;;10560488;28;20150;-80
2023/04/19 12:22:18;;;;;;;5.00;2.80;;;;;;;;;;10558513;28;20024;-81
2023/04/19 12:27:19;;;;;;;6.47;3.30;;;;;;;;;;10559890;28;20473;-80
2023/04/19 12:32:20;;;;;;;4.80;3.60;;;;;;;;;;10560724;28;20024;-81
2023/04/19 12:37:21;;;;;;;4.43;2.47;;;;;;;;;;10559899;28;20023;-81
2023/04/19 12:42:22;;;;;;;5.40;4.38;;;;;;;;;;10568056;28;20219;-81
2023/04/19 12:47:23;;;;;;;4.10;2.80;;;;;;;;;;10571613;28;20035;-82
2023/04/19 12:52:25;;;;;;;4.97;2.90;;;;;;;;;;10583976;28;20028;-82
2023/04/19 12:57:26;;;;;;;7.47;4.63;;;;;;;;;;10565483;28;20454;-82
2023/04/19 13:02:27;;;;;;;4.90;3.45;;;;;;;;;;10556931;28;20101;-81
2023/04/19 13:07:28;;;;;;;6.18;3.30;;;;;;;;;;10554251;28;20040;-82
2023/04/19 13:12:29;;;;;;;4.78;3.10;;;;;;;;;;10556392;28;20085;-82
2023/04/19 13:17:30;;;;;;;7.85;2.92;;;;;;;;;;10556120;28;20099;-81
2023/04/19 13:22:31;;;;;;;5.65;3.75;;;;;;;;;;10552216;28;20118;-81
2023/04/19 13:27:32;;;;;;;6.18;2.22;;;;;;;;;;10554238;28;20044;-81
2023/04/19 13:32:33;;;;;;;4.15;2.83;;;;;;;;;;10553606;28;20024;-82
2023/04/19 13:37:34;;;;;;;5.28;2.95;;;;;;;;;;10555910;28;20134;-79
2023/04/19 13:42:36;;;;;;;5.40;3.25;;;;;;;;;;10555111;28;20047;-81
2023/04/19 13:47:37;;;;;;;5.80;3.28;;;;;;;;;;10554302;28;20024;-80
2023/04/19 13:52:38;;;;;;;6.03;2.85;;;;;;;;;;10554046;28;20553;-81
2023/04/19 13:57:39;;;;;;;4.45;3.00;;;;;;;;;;10550912;28;20107;-80
2023/04/19 14:02:40;;;;;;;5.75;2.88;;;;;;;;;;10551593;28;20036;-79
2023/04/19 14:07:41;;;;;;;8.35;3.10;;;;;;;;;;10558144;28;20393;-82
2023/04/19 14:12:43;;;;;;;5.63;3.10;;;;;;;;;;10557766;28;20047;-80
2023/04/19 14:17:44;;;;;;;5.85;2.80;;;;;;;;;;10557951;28;20028;-80
2023/04/19 14:22:46;;;;;;;3.80;2.20;;;;;;;;;;10558298;28;20028;-80
2023/04/19 14:27:47;;;;;;;3.60;2.33;;;;;;;;;;10559223;28;20078;-80
2023/04/19 14:32:48;;;;;;;2.95;2.22;;;;;;;;;;10559076;28;20020;-80
2023/04/19 14:37:49;;;;;;;4.50;2.60;;;;;;;;;;10556855;28;20182;-83
2023/04/19 14:42:52;;;;;;;4.40;2.97;;;;;;;;;;10560197;28;20032;-80
2023/04/19 14:47:53;;;;;;;5.15;2.80;;;;;;;;;;10561719;28;20346;-81
2023/04/19 14:52:54;;;;;;;4.18;2.20;;;;;;;;;;10561824;28;20100;-81
2023/04/19 14:57:55;;;;;;;4.10;2.58;;;;;;;;;;10563637;28;20020;-82
2023/04/19 15:02:56;;;;;;;3.58;2.80;;;;;;;;;;10560730;28;20035;-81
2023/04/19 15:07:57;;;;;;;2.85;2.20;;;;;;;;;;10558513;28;20024;-80
2023/04/19 15:12:58;;;;;;;5.55;2.40;;;;;;;;;;10562925;28;20052;-80
2023/04/19 15:17:59;;;;;;;6.40;2.42;;;;;;;;;;10571986;28;20051;-79
2023/04/19 15:23:00;;;;;;;3.33;2.30;;;;;;;;;;10561110;28;20024;-81
2023/04/19 15:28:01;;;;;;;3.65;2.60;;;;;;;;;;10554854;28;20058;-79
2023/04/19 15:33:02;;;;;;;3.45;2.20;;;;;;;;;;10555973;28;20089;-79
2023/04/19 15:38:04;;;;;;;4.18;2.88;;;;;;;;;;10553719;28;20092;-80
2023/04/19 15:43:06;;;;;;;3.17;2.70;;;;;;;;;;10553435;28;20041;-80
2023/04/19 15:48:07;;;;;;;4.43;2.20;;;;;;;;;;10555169;28;20024;-79
2023/04/19 15:53:08;;;;;;;2.65;1.90;;;;;;;;;;10555458;28;20020;-79
2023/04/19 15:58:09;;;;;;;8.93;3.40;;;;;;;;;;10554931;28;20051;-80
2023/04/19 16:03:11;;;;;;;4.10;2.17;;;;;;;;;;10553272;28;20044;-80
2023/04/19 16:08:16;;;;;;;3.95;2.08;;;;;;;;;;10555310;28;20024;-80
2023/04/19 16:13:17;;;;;;;4.15;2.05;;;;;;;;;;10557666;28;20415;-80
2023/04/19 16:18:18;;;;;;;4.63;2.63;;;;;;;;;;10566119;28;20043;-81
2023/04/19 16:23:19;;;;;;;3.15;1.83;;;;;;;;;;10574134;28;20027;-81
2023/04/19 16:28:20;;;;;;;7.38;3.60;;;;;;;;;;10549653;28;20031;-81
2023/04/19 16:33:21;;;;;;;3.58;2.30;;;;;;;;;;10548500;28;20077;-80
2023/04/19 16:38:22;;;;;;;4.45;2.00;;;;;;;;;;10549604;28;20367;-82
2023/04/19 16:43:23;;;;;;;3.90;1.95;;;;;;;;;;10550381;28;20032;-82
2023/04/19 16:48:24;;;;;;;3.95;1.92;;;;;;;;;;10549427;28;20118;-80
2023/04/19 16:53:25;;;;;;;4.55;2.10;;;;;;;;;;10549728;28;20031;-80
2023/04/19 16:58:26;;;;;;;6.15;2.42;;;;;;;;;;10548967;28;20035;-81
2023/04/19 17:03:30;;;;;;;8.88;2.40;;;;;;;;;;10550041;28;20129;-81
2023/04/19 17:08:31;;;;;;;5.32;3.25;;;;;;;;;;10554186;28;20046;-81
2023/04/19 17:13:32;;;;;;;;;;;;;;;;;;10554224;28;20067;-81
2023/04/19 17:18:33;;;;;;;4.05;2.40;;;;;;;;;;10559762;28;20003;-82
2023/04/19 17:23:34;;;;;;;;;;;;;;;;;;10577952;28;20077;-80
2023/04/19 17:28:36;;;;;;;5.20;2.70;;;;;;;;;;10543667;28;19979;-81
2023/04/19 17:33:37;;;;;;;5.93;2.63;;;;;;;;;;10553666;28;20422;-81
2023/04/19 17:38:38;;;;;;;6.38;2.58;;;;;;;;;;10553085;28;20028;-80
2023/04/19 17:43:39;;;;;;;4.53;2.75;;;;;;;;;;10551381;28;20024;-81
2023/04/19 17:48:40;;;;;;;;;;;;;;;;;;10552399;28;20016;-81
2023/04/19 17:53:41;;;;;;;5.45;2.72;;;;;;;;;;10534383;28;19907;-81
2023/04/19 17:58:43;;;;;;;7.32;2.70;;;;;;;;;;10553788;28;20133;-81
2023/04/19 18:03:44;;;;;;;3.58;2.50;;;;;;;;;;10586317;22;20053;-79
2023/04/19 18:08:45;;;;;;;5.13;3.05;;;;;;;;;;10546470;28;20028;-80
2023/04/19 18:13:46;;;;;;;4.88;2.97;;;;;;;;;;10549954;28;20024;-79
2023/04/19 18:18:47;;;;;;;6.38;3.22;;;;;;;;;;10546505;28;20111;-80
2023/04/19 18:23:48;;;;;;;5.05;3.13;;;;;;;;;;10544909;28;20123;-80
2023/04/19 18:28:49;;;;;;;4.72;3.30;;;;;;;;;;10544077;28;20035;-79
2023/04/19 18:33:50;;;;;;;5.43;3.22;;;;;;;;;;10543966;28;20060;-79
2023/04/19 18:38:51;;;;;;;5.50;3.25;;;;;;;;;;10544098;28;20055;-80
2023/04/19 18:43:53;;;;;;;4.05;2.85;;;;;;;;;;10547867;28;20051;-79
2023/04/19 18:48:54;;;;;;;3.22;2.80;;;;;;;;;;10547209;28;20474;-80
2023/04/19 18:53:55;;;;;;;3.38;2.35;;;;;;;;;;10543790;28;20020;-80
2023/04/19 18:58:56;;;;;;;3.55;2.63;;;;;;;;;;10550447;28;20032;-80
2023/04/19 19:03:57;;;;;;;5.65;3.45;;;;;;;;;;10554326;28;20402;-80
2023/04/19 19:08:59;;;;;;;5.35;4.82;;;;;;;;;;10552951;28;20024;-80
2023/04/19 19:14:00;;;;;;;7.20;5.80;;;;;;;;;;10551668;28;20028;-80
